Time,TemperatureF,DewpointF,PressureIn,WindDirection,WindDirectionDegrees,WindSpeedMPH,WindSpeedGustMPH,Humidity,HourlyPrecipIn,Conditions,Clouds,dailyrainin,SoftwareType,DateUTC
2013-04-17 00:00:00,39.1,26.8,30.39,SW,231,1.0,1.0,61,0.00,,,0.00,Wunderground v.1.15,2013-04-17 07:00:00,
2013-04-17 00:05:00,39.3,28.1,30.39,WNW,285,1.0,6.0,64,0.00,,,0.00,Wunderground v.1.15,2013-04-17 07:05:00,
2013-04-17 00:10:00,39.3,28.5,30.39,NNW,335,1.0,6.0,65,0.00,,,0.00,Wunderground v.1.15,2013-04-17 07:10:00,
2013-04-17 00:15:00,39.3,28.1,30.39,North,4,1.0,6.0,64,0.00,,,0.00,Wunderground v.1.15,2013-04-17 07:15:00,
2013-04-17 00:20:00,39.4,29.3,30.39,NNW,338,2.0,2.0,67,0.00,,,0.00,Wunderground v.1.15,2013-04-17 07:20:00,
2013-04-17 00:25:00,39.4,29.7,30.39,NNW,330,2.0,6.0,68,0.00,,,0.00,Wunderground v.1.15,2013-04-17 07:25:00,
2013-04-17 00:30:00,39.5,30.2,30.39,West,281,1.0,6.0,69,0.00,,,0.00,Wunderground v.1.15,2013-04-17 07:30:00,
2013-04-17 00:35:00,39.5,30.9,30.39,WNW,301,1.0,6.0,71,0.00,,,0.00,Wunderground v.1.15,2013-04-17 07:35:00,
2013-04-17 00:40:00,39.3,30.3,30.40,NE,39,1.0,1.0,70,0.00,,,0.00,Wunderground v.1.15,2013-04-17 07:40:00,
2013-04-17 00:44:00,39.2,29.5,30.40,North,354,1.0,6.0,68,0.00,,,0.00,Wunderground v.1.15,2013-04-17 07:44:00,
2013-04-17 00:50:00,39.0,29.0,30.40,WNW,300,1.0,6.0,67,0.00,,,0.00,Wunderground v.1.15,2013-04-17 07:50:00,
2013-04-17 00:55:00,39.1,29.8,30.40,WSW,238,1.0,6.0,69,0.00,,,0.00,Wunderground v.1.15,2013-04-17 07:55:00,
2013-04-17 01:00:00,38.9,29.9,30.40,WSW,239,1.0,6.0,70,0.00,,,0.00,Wunderground v.1.15,2013-04-17 08:00:00,
2013-04-17 01:05:00,38.6,28.6,30.40,West,277,0.0,6.0,67,0.00,,,0.00,Wunderground v.1.15,2013-04-17 08:05:00,
2013-04-17 01:10:00,38.5,28.1,30.40,West,264,1.0,1.0,66,0.00,,,0.00,Wunderground v.1.15,2013-04-17 08:10:00,
2013-04-17 01:20:00,38.1,26.6,30.40,WNW,289,0.0,6.0,63,0.00,,,0.00,Wunderground v.1.15,2013-04-17 08:20:00,
2013-04-17 01:25:00,37.9,26.0,30.40,WNW,288,0.0,6.0,62,0.00,,,0.00,Wunderground v.1.15,2013-04-17 08:25:00,
2013-04-17 01:30:00,38.0,25.7,30.40,West,266,1.0,6.0,61,0.00,,,0.00,Wunderground v.1.15,2013-04-17 08:30:00,
2013-04-17 01:35:00,38.1,25.8,30.40,ENE,59,1.0,6.0,61,0.00,,,0.00,Wunderground v.1.15,2013-04-17 08:35:00,
2013-04-17 01:40:00,38.0,25.7,30.40,NW,315,1.0,6.0,61,0.00,,,0.00,Wunderground v.1.15,2013-04-17 08:40:00,
2013-04-17 01:45:00,38.1,26.2,30.40,North,5,1.0,6.0,62,0.00,,,0.00,Wunderground v.1.15,2013-04-17 08:45:00,
2013-04-17 01:50:00,38.2,26.7,30.40,WNW,301,2.0,6.0,63,0.00,,,0.00,Wunderground v.1.15,2013-04-17 08:50:00,
2013-04-17 01:55:00,38.2,26.7,30.40,North,356,1.0,6.0,63,0.00,,,0.00,Wunderground v.1.15,2013-04-17 08:55:00,
2013-04-17 02:00:00,38.1,26.2,30.41,West,266,1.0,6.0,62,0.00,,,0.00,Wunderground v.1.15,2013-04-17 09:00:00,
2013-04-17 02:05:00,38.1,26.6,30.40,NNW,340,1.0,6.0,63,0.00,,,0.00,Wunderground v.1.15,2013-04-17 09:05:00,
2013-04-17 02:10:00,38.0,25.7,30.41,West,270,1.0,6.0,61,0.00,,,0.00,Wunderground v.1.15,2013-04-17 09:10:00,
2013-04-17 02:15:00,38.0,26.9,30.41,SSE,150,1.0,6.0,64,0.00,,,0.00,Wunderground v.1.15,2013-04-17 09:15:00,
2013-04-17 02:20:00,37.9,26.8,30.41,WSW,239,1.0,1.0,64,0.00,,,0.00,Wunderground v.1.15,2013-04-17 09:20:00,
2013-04-17 02:25:00,37.6,27.3,30.41,SW,217,1.0,2.0,66,0.00,,,0.00,Wunderground v.1.15,2013-04-17 09:25:00,
2013-04-17 02:30:00,37.3,27.0,30.41,SW,229,1.0,1.0,66,0.00,,,0.00,Wunderground v.1.15,2013-04-17 09:30:00,
2013-04-17 02:35:00,37.4,25.6,30.41,WSW,257,1.0,6.0,62,0.00,,,0.00,Wunderground v.1.15,2013-04-17 09:35:00,
2013-04-17 02:40:00,37.5,26.4,30.41,NE,53,1.0,6.0,64,0.00,,,0.00,Wunderground v.1.15,2013-04-17 09:40:00,
2013-04-17 02:45:00,37.7,27.4,30.41,West,260,1.0,6.0,66,0.00,,,0.00,Wunderground v.1.15,2013-04-17 09:45:00,
2013-04-17 02:50:00,37.8,27.8,30.41,WNW,294,1.0,6.0,67,0.00,,,0.00,Wunderground v.1.15,2013-04-17 09:50:00,
2013-04-17 02:55:00,37.8,27.5,30.41,West,281,1.0,6.0,66,0.00,,,0.00,Wunderground v.1.15,2013-04-17 09:55:00,
2013-04-17 03:00:00,37.7,26.6,30.41,West,278,1.0,1.0,64,0.00,,,0.00,Wunderground v.1.15,2013-04-17 10:00:00,
2013-04-17 03:05:00,37.6,26.5,30.41,West,264,1.0,6.0,64,0.00,,,0.00,Wunderground v.1.15,2013-04-17 10:05:00,
2013-04-17 03:10:00,37.4,25.9,30.41,NW,323,1.0,1.0,63,0.00,,,0.00,Wunderground v.1.15,2013-04-17 10:10:00,
2013-04-17 03:15:00,37.3,25.1,30.41,West,278,0.0,6.0,61,0.00,,,0.00,Wunderground v.1.15,2013-04-17 10:15:00,
2013-04-17 03:20:00,37.1,23.7,30.41,WSW,252,0.0,6.0,58,0.00,,,0.00,Wunderground v.1.15,2013-04-17 10:20:00,
2013-04-17 03:25:00,37.0,23.6,30.41,South,188,0.0,6.0,58,0.00,,,0.00,Wunderground v.1.15,2013-04-17 10:25:00,
2013-04-17 03:30:00,37.0,24.4,30.41,ENE,59,1.0,1.0,60,0.00,,,0.00,Wunderground v.1.15,2013-04-17 10:30:00,
2013-04-17 03:35:00,37.3,25.5,30.41,NE,47,1.0,6.0,62,0.00,,,0.00,Wunderground v.1.15,2013-04-17 10:35:00,
2013-04-17 03:40:00,37.5,27.2,30.41,WNW,290,1.0,6.0,66,0.00,,,0.00,Wunderground v.1.15,2013-04-17 10:40:00,
2013-04-17 03:45:00,37.5,27.5,30.41,WSW,257,1.0,6.0,67,0.00,,,0.00,Wunderground v.1.15,2013-04-17 10:45:00,
2013-04-17 03:50:00,37.3,27.0,30.41,NE,53,1.0,1.0,66,0.00,,,0.00,Wunderground v.1.15,2013-04-17 10:50:00,
2013-04-17 03:54:00,37.2,27.2,30.41,WSW,243,1.0,2.0,67,0.00,,,0.00,Wunderground v.1.15,2013-04-17 10:54:00,
2013-04-17 04:00:00,37.2,26.9,30.41,SW,226,1.0,6.0,66,0.00,,,0.00,Wunderground v.1.15,2013-04-17 11:00:00,
2013-04-17 04:05:00,37.3,27.7,30.41,SW,224,1.0,6.0,68,0.00,,,0.00,Wunderground v.1.15,2013-04-17 11:05:00,
2013-04-17 04:10:00,37.4,27.8,30.41,NNE,18,1.0,6.0,68,0.00,,,0.00,Wunderground v.1.15,2013-04-17 11:10:00,
2013-04-17 04:15:00,37.3,28.1,30.41,WSW,258,0.0,6.0,69,0.00,,,0.00,Wunderground v.1.15,2013-04-17 11:15:00,
2013-04-17 04:20:00,37.1,26.8,30.41,NNE,29,0.0,6.0,66,0.00,,,0.00,Wunderground v.1.15,2013-04-17 11:20:00,
2013-04-17 04:30:00,36.8,25.0,30.41,WSW,248,1.0,6.0,62,0.00,,,0.00,Wunderground v.1.15,2013-04-17 11:30:00,
2013-04-17 04:35:00,36.7,24.9,30.41,WSW,245,1.0,6.0,62,0.00,,,0.00,Wunderground v.1.15,2013-04-17 11:35:00,
2013-04-17 04:40:00,36.7,24.5,30.41,WSW,253,1.0,6.0,61,0.00,,,0.00,Wunderground v.1.15,2013-04-17 11:40:00,
2013-04-17 04:45:00,36.7,24.9,30.41,WSW,243,1.0,6.0,62,0.00,,,0.00,Wunderground v.1.15,2013-04-17 11:45:00,
2013-04-17 04:50:00,36.8,24.6,30.41,WSW,253,1.0,1.0,61,0.00,,,0.00,Wunderground v.1.15,2013-04-17 11:50:00,
2013-04-17 05:00:00,37.2,27.2,30.41,West,281,1.0,6.0,67,0.00,,,0.00,Wunderground v.1.15,2013-04-17 12:00:00,
2013-04-17 05:05:00,37.2,28.0,30.41,WSW,257,2.0,6.0,69,0.00,,,0.00,Wunderground v.1.15,2013-04-17 12:05:00,
2013-04-17 05:10:00,37.0,27.4,30.41,WSW,250,2.0,6.0,68,0.00,,,0.00,Wunderground v.1.15,2013-04-17 12:10:00,
2013-04-17 05:15:00,36.8,26.1,30.41,West,259,2.0,6.0,65,0.00,,,0.00,Wunderground v.1.15,2013-04-17 12:15:00,
2013-04-17 05:20:00,36.7,25.7,30.41,WSW,239,1.0,6.0,64,0.00,,,0.00,Wunderground v.1.15,2013-04-17 12:20:00,
2013-04-17 05:25:00,36.6,25.9,30.42,WSW,249,2.0,6.0,65,0.00,,,0.00,Wunderground v.1.15,2013-04-17 12:25:00,
2013-04-17 05:30:00,36.3,25.7,30.42,SSW,207,2.0,6.0,65,0.00,,,0.00,Wunderground v.1.15,2013-04-17 12:30:00,
2013-04-17 05:35:00,36.4,24.6,30.42,SW,222,2.0,6.0,62,0.00,,,0.00,Wunderground v.1.15,2013-04-17 12:35:00,
2013-04-17 05:40:00,36.3,25.3,30.42,WSW,246,2.0,2.0,64,0.00,,,0.00,Wunderground v.1.15,2013-04-17 12:40:00,
2013-04-17 05:44:00,36.2,24.4,30.42,WSW,239,1.0,6.0,62,0.00,,,0.00,Wunderground v.1.15,2013-04-17 12:44:00,
2013-04-17 05:50:00,36.0,24.2,30.42,WSW,250,1.0,6.0,62,0.00,,,0.00,Wunderground v.1.15,2013-04-17 12:50:00,
2013-04-17 05:55:00,36.0,25.4,30.42,SW,236,1.0,6.0,65,0.00,,,0.00,Wunderground v.1.15,2013-04-17 12:55:00,
2013-04-17 06:00:00,35.8,24.4,30.42,WSW,250,1.0,6.0,63,0.00,,,0.00,Wunderground v.1.15,2013-04-17 13:00:00,
2013-04-17 06:05:00,35.8,22.9,30.42,WSW,239,1.0,6.0,59,0.00,,,0.00,Wunderground v.1.15,2013-04-17 13:05:00,
2013-04-17 06:10:00,35.9,24.9,30.42,West,266,1.0,6.0,64,0.00,,,0.00,Wunderground v.1.15,2013-04-17 13:10:00,
2013-04-17 06:15:00,35.9,23.7,30.43,SW,231,2.0,6.0,61,0.00,,,0.00,Wunderground v.1.15,2013-04-17 13:15:00,
2013-04-17 06:20:00,35.9,23.7,30.43,West,266,2.0,2.0,61,0.00,,,0.00,Wunderground v.1.15,2013-04-17 13:20:00,
2013-04-17 06:25:00,35.9,23.0,30.43,NW,311,1.0,6.0,59,0.00,,,0.00,Wunderground v.1.15,2013-04-17 13:25:00,
2013-04-17 06:30:00,35.9,22.5,30.43,West,278,1.0,1.0,58,0.00,,,0.00,Wunderground v.1.15,2013-04-17 13:30:00,
2013-04-17 06:35:00,35.8,22.9,30.43,West,262,1.0,6.0,59,0.00,,,0.00,Wunderground v.1.15,2013-04-17 13:35:00,
2013-04-17 06:40:00,35.9,21.3,30.43,WSW,257,1.0,6.0,55,0.00,,,0.00,Wunderground v.1.15,2013-04-17 13:40:00,
2013-04-17 06:45:00,36.0,22.2,30.43,WNW,286,1.0,6.0,57,0.00,,,0.00,Wunderground v.1.15,2013-04-17 13:45:00,
2013-04-17 06:50:00,36.2,22.4,30.43,NNE,18,1.0,6.0,57,0.00,,,0.00,Wunderground v.1.15,2013-04-17 13:50:00,
2013-04-17 06:55:00,36.3,23.3,30.43,WSW,258,1.0,6.0,59,0.00,,,0.00,Wunderground v.1.15,2013-04-17 13:55:00,
2013-04-17 07:00:00,36.5,23.1,30.43,WSW,252,1.0,1.0,58,0.00,,,0.00,Wunderground v.1.15,2013-04-17 14:00:00,
2013-04-17 07:05:00,36.8,25.4,30.43,West,273,1.0,2.0,63,0.00,,,0.00,Wunderground v.1.15,2013-04-17 14:05:00,
2013-04-17 07:15:00,37.6,28.7,30.43,WSW,255,1.0,6.0,70,0.00,,,0.00,Wunderground v.1.15,2013-04-17 14:15:00,
2013-04-17 07:20:00,37.9,29.0,30.44,West,262,1.0,6.0,70,0.00,,,0.00,Wunderground v.1.15,2013-04-17 14:20:00,
2013-04-17 07:25:00,38.2,31.0,30.43,SW,231,1.0,6.0,75,0.00,,,0.00,Wunderground v.1.15,2013-04-17 14:25:00,
2013-04-17 07:30:00,38.7,32.4,30.43,SW,233,1.0,6.0,78,0.00,,,0.00,Wunderground v.1.15,2013-04-17 14:30:00,
2013-04-17 07:34:00,39.2,32.9,30.44,NE,40,1.0,6.0,78,0.00,,,0.00,Wunderground v.1.15,2013-04-17 14:34:00,
2013-04-17 07:40:00,39.6,33.6,30.43,NNE,14,1.0,6.0,79,0.00,,,0.00,Wunderground v.1.15,2013-04-17 14:40:00,
2013-04-17 07:45:00,39.8,34.1,30.43,West,263,1.0,6.0,80,0.00,,,0.00,Wunderground v.1.15,2013-04-17 14:45:00,
2013-04-17 07:50:00,40.1,34.4,30.43,North,349,1.0,6.0,80,0.00,,,0.00,Wunderground v.1.15,2013-04-17 14:50:00,
2013-04-17 07:55:00,40.6,34.9,30.43,SW,229,1.0,6.0,80,0.00,,,0.00,Wunderground v.1.15,2013-04-17 14:55:00,
2013-04-17 08:00:00,40.9,35.2,30.43,WNW,290,1.0,1.0,80,0.00,,,0.00,Wunderground v.1.15,2013-04-17 15:00:00,
2013-04-17 08:05:00,41.1,35.4,30.43,West,263,1.0,2.0,80,0.00,,,0.00,Wunderground v.1.15,2013-04-17 15:05:00,
2013-04-17 08:10:00,41.4,35.7,30.44,SW,225,1.0,6.0,80,0.00,,,0.00,Wunderground v.1.15,2013-04-17 15:10:00,
2013-04-17 08:15:00,41.9,36.2,30.44,WSW,238,1.0,6.0,80,0.00,,,0.00,Wunderground v.1.15,2013-04-17 15:15:00,
2013-04-17 08:20:00,42.7,37.0,30.44,SE,127,1.0,6.0,80,0.00,,,0.00,Wunderground v.1.15,2013-04-17 15:20:00,
2013-04-17 08:25:00,43.6,37.2,30.44,ENE,70,1.0,6.0,78,0.00,,,0.00,Wunderground v.1.15,2013-04-17 15:25:00,
2013-04-17 08:30:00,44.4,37.6,30.44,SW,233,1.0,6.0,77,0.00,,,0.00,Wunderground v.1.15,2013-04-17 15:30:00,
2013-04-17 08:35:00,44.7,37.6,30.44,South,176,1.0,6.0,76,0.00,,,0.00,Wunderground v.1.15,2013-04-17 15:35:00,
2013-04-17 08:40:00,44.7,37.6,30.44,NW,325,2.0,2.0,76,0.00,,,0.00,Wunderground v.1.15,2013-04-17 15:40:00,
2013-04-17 08:45:00,44.9,37.8,30.44,West,276,2.0,6.0,76,0.00,,,0.00,Wunderground v.1.15,2013-04-17 15:45:00,
2013-04-17 08:50:00,45.2,37.7,30.45,WNW,293,1.0,6.0,75,0.00,,,0.00,Wunderground v.1.15,2013-04-17 15:50:00,
2013-04-17 08:55:00,45.8,38.0,30.44,SSW,195,1.0,6.0,74,0.00,,,0.00,Wunderground v.1.15,2013-04-17 15:55:00,
2013-04-17 09:00:00,46.2,37.7,30.45,North,355,1.0,6.0,72,0.00,,,0.00,Wunderground v.1.15,2013-04-17 16:00:00,
2013-04-17 09:05:00,46.4,36.8,30.45,NW,307,2.0,6.0,69,0.00,,,0.00,Wunderground v.1.15,2013-04-17 16:05:00,
2013-04-17 09:10:00,46.6,37.7,30.44,SW,236,2.0,2.0,71,0.00,,,0.00,Wunderground v.1.15,2013-04-17 16:10:00,
2013-04-17 09:15:00,47.5,38.2,30.44,East,91,1.0,6.0,70,0.00,,,0.00,Wunderground v.1.15,2013-04-17 16:15:00,
2013-04-17 09:20:00,48.5,37.7,30.44,WNW,297,1.0,6.0,66,0.00,,,0.00,Wunderground v.1.15,2013-04-17 16:20:00,
2013-04-17 09:25:00,49.2,40.2,30.44,WNW,301,1.0,6.0,71,0.00,,,0.00,Wunderground v.1.15,2013-04-17 16:25:00,
2013-04-17 09:30:00,49.2,37.5,30.44,WNW,301,2.0,2.0,64,0.00,,,0.00,Wunderground v.1.15,2013-04-17 16:30:00,
2013-04-17 09:35:00,49.2,37.5,30.44,NW,316,1.0,6.0,64,0.00,,,0.00,Wunderground v.1.15,2013-04-17 16:35:00,
2013-04-17 09:40:00,49.1,37.4,30.44,North,353,1.0,1.0,64,0.00,,,0.00,Wunderground v.1.15,2013-04-17 16:40:00,
2013-04-17 09:45:00,49.1,37.8,30.44,NW,315,1.0,6.0,65,0.00,,,0.00,Wunderground v.1.15,2013-04-17 16:45:00,
2013-04-17 09:55:00,48.3,37.5,30.44,SE,137,1.0,6.0,66,0.00,,,0.00,Wunderground v.1.15,2013-04-17 16:55:00,
2013-04-17 10:00:00,48.6,37.7,30.44,South,171,1.0,6.0,66,0.00,,,0.00,Wunderground v.1.15,2013-04-17 17:00:00,
2013-04-17 10:05:00,49.6,39.1,30.44,West,276,1.0,6.0,67,0.00,,,0.00,Wunderground v.1.15,2013-04-17 17:05:00,
2013-04-17 10:10:00,50.1,37.6,30.43,SE,131,1.0,6.0,62,0.00,,,0.00,Wunderground v.1.15,2013-04-17 17:10:00,
2013-04-17 10:15:00,50.2,38.5,30.43,SW,221,2.0,6.0,64,0.00,,,0.00,Wunderground v.1.15,2013-04-17 17:15:00,
2013-04-17 10:25:00,51.3,38.3,30.43,NNW,345,1.0,6.0,61,0.00,,,0.00,Wunderground v.1.15,2013-04-17 17:25:00,
2013-04-17 10:30:00,51.8,39.2,30.43,SSW,200,1.0,6.0,62,0.00,,,0.00,Wunderground v.1.15,2013-04-17 17:30:00,
2013-04-17 10:35:00,51.8,39.6,30.43,SSE,158,2.0,6.0,63,0.00,,,0.00,Wunderground v.1.15,2013-04-17 17:35:00,
2013-04-17 10:40:00,52.3,40.5,30.43,WNW,287,2.0,6.0,64,0.00,,,0.00,Wunderground v.1.15,2013-04-17 17:40:00,
2013-04-17 10:45:00,52.1,41.9,30.43,NW,322,2.0,6.0,68,0.00,,,0.00,Wunderground v.1.15,2013-04-17 17:45:00,
2013-04-17 10:55:00,53.7,40.1,30.43,ENE,68,1.0,6.0,60,0.00,,,0.00,Wunderground v.1.15,2013-04-17 17:55:00,
2013-04-17 11:00:00,53.7,39.7,30.43,SE,143,1.0,6.0,59,0.00,,,0.00,Wunderground v.1.15,2013-04-17 18:00:00,
2013-04-17 11:05:00,54.2,41.0,30.43,NW,307,2.0,6.0,61,0.00,,,0.00,Wunderground v.1.15,2013-04-17 18:05:00,
2013-04-17 11:10:00,54.3,40.3,30.43,SSW,201,2.0,2.0,59,0.00,,,0.00,Wunderground v.1.15,2013-04-17 18:10:00,
2013-04-17 11:15:00,54.6,40.1,30.43,WSW,242,1.0,6.0,58,0.00,,,0.00,Wunderground v.1.15,2013-04-17 18:15:00,
2013-04-17 11:25:00,54.6,39.7,30.43,WNW,285,2.0,6.0,57,0.00,,,0.00,Wunderground v.1.15,2013-04-17 18:25:00,
2013-04-17 11:30:00,54.9,42.1,30.43,SE,136,2.0,2.0,62,0.00,,,0.00,Wunderground v.1.15,2013-04-17 18:30:00,
2013-04-17 11:35:00,54.7,39.8,30.42,SSW,202,3.0,3.0,57,0.00,,,0.00,Wunderground v.1.15,2013-04-17 18:35:00,
2013-04-17 11:40:00,54.7,39.3,30.42,NW,321,3.0,3.0,56,0.00,,,0.00,Wunderground v.1.15,2013-04-17 18:40:00,
2013-04-17 11:45:00,55.3,42.5,30.43,South,190,1.0,6.0,62,0.00,,,0.00,Wunderground v.1.15,2013-04-17 18:45:00,
2013-04-17 11:50:00,56.1,40.6,30.42,SSW,207,2.0,2.0,56,0.00,,,0.00,Wunderground v.1.15,2013-04-17 18:50:00,
2013-04-17 11:55:00,56.2,41.6,30.43,South,184,3.0,3.0,58,0.00,,,0.00,Wunderground v.1.15,2013-04-17 18:55:00,
2013-04-17 12:00:00,56.3,40.8,30.42,WSW,246,3.0,3.0,56,0.00,,,0.00,Wunderground v.1.15,2013-04-17 19:00:00,
2013-04-17 12:04:00,56.6,42.9,30.42,SSW,213,2.0,6.0,60,0.00,,,0.00,Wunderground v.1.15,2013-04-17 19:04:00,
2013-04-17 12:10:00,56.5,39.6,30.42,SE,129,3.0,6.0,53,0.00,,,0.00,Wunderground v.1.15,2013-04-17 19:10:00,
2013-04-17 12:15:00,56.4,40.4,30.42,SE,132,3.0,6.0,55,0.00,,,0.00,Wunderground v.1.15,2013-04-17 19:15:00,
2013-04-17 12:20:00,56.6,39.7,30.42,South,169,3.0,3.0,53,0.00,,,0.00,Wunderground v.1.15,2013-04-17 19:20:00,
2013-04-17 12:25:00,56.9,40.4,30.42,ESE,111,2.0,6.0,54,0.00,,,0.00,Wunderground v.1.15,2013-04-17 19:25:00,
2013-04-17 12:35:00,57.4,37.3,30.42,East,86,2.0,6.0,47,0.00,,,0.00,Wunderground v.1.15,2013-04-17 19:35:00,
2013-04-17 12:40:00,57.7,39.7,30.41,ESE,111,2.0,6.0,51,0.00,,,0.00,Wunderground v.1.15,2013-04-17 19:40:00,
2013-04-17 12:45:00,58.0,38.9,30.41,SSW,203,3.0,6.0,49,0.00,,,0.00,Wunderground v.1.15,2013-04-17 19:45:00,
2013-04-17 12:50:00,58.6,40.0,30.41,SSW,212,3.0,6.0,50,0.00,,,0.00,Wunderground v.1.15,2013-04-17 19:50:00,
2013-04-17 12:55:00,58.4,36.6,30.41,NNE,16,3.0,6.0,44,0.00,,,0.00,Wunderground v.1.15,2013-04-17 19:55:00,
2013-04-17 13:00:00,58.5,37.2,30.42,SE,136,3.0,3.0,45,0.00,,,0.00,Wunderground v.1.15,2013-04-17 20:00:00,
2013-04-17 13:05:00,58.6,41.0,30.41,South,180,3.0,6.0,52,0.00,,,0.00,Wunderground v.1.15,2013-04-17 20:05:00,
2013-04-17 13:10:00,58.6,37.3,30.41,South,170,3.0,3.0,45,0.00,,,0.00,Wunderground v.1.15,2013-04-17 20:10:00,
2013-04-17 13:15:00,58.7,41.1,30.41,WSW,256,3.0,6.0,52,0.00,,,0.00,Wunderground v.1.15,2013-04-17 20:15:00,
2013-04-17 13:20:00,58.7,35.0,30.41,WNW,284,3.0,3.0,41,0.00,,,0.00,Wunderground v.1.15,2013-04-17 20:20:00,
2013-04-17 13:25:00,58.4,37.7,30.41,SSE,166,3.0,4.0,46,0.00,,,0.00,Wunderground v.1.15,2013-04-17 20:25:00,
2013-04-17 13:30:00,58.5,38.9,30.40,WNW,294,3.0,3.0,48,0.00,,,0.00,Wunderground v.1.15,2013-04-17 20:30:00,
2013-04-17 13:35:00,57.8,36.6,30.40,SW,233,2.0,6.0,45,0.00,,,0.00,Wunderground v.1.15,2013-04-17 20:35:00,
2013-04-17 13:40:00,57.2,38.2,30.40,West,271,2.0,6.0,49,0.00,,,0.00,Wunderground v.1.15,2013-04-17 20:40:00,
2013-04-17 13:44:00,56.5,39.1,30.40,SW,227,2.0,6.0,52,0.00,,,0.00,Wunderground v.1.15,2013-04-17 20:44:00,
2013-04-17 13:50:00,56.3,39.9,30.40,SSW,208,2.0,6.0,54,0.00,,,0.00,Wunderground v.1.15,2013-04-17 20:50:00,
2013-04-17 13:55:00,56.4,39.5,30.40,SW,221,2.0,6.0,53,0.00,,,0.00,Wunderground v.1.15,2013-04-17 20:55:00,
2013-04-17 14:00:00,56.9,39.4,30.40,WNW,295,2.0,6.0,52,0.00,,,0.00,Wunderground v.1.15,2013-04-17 21:00:00,
2013-04-17 14:05:00,57.5,41.9,30.40,WSW,246,2.0,6.0,56,0.00,,,0.00,Wunderground v.1.15,2013-04-17 21:05:00,
2013-04-17 14:14:00,57.9,38.8,30.39,ENE,67,2.0,6.0,49,0.00,,,0.00,Wunderground v.1.15,2013-04-17 21:14:00,
2013-04-17 14:20:00,57.5,37.4,30.40,SW,224,2.0,6.0,47,0.00,,,0.00,Wunderground v.1.15,2013-04-17 21:20:00,
2013-04-17 14:25:00,57.2,37.7,30.40,SSW,205,3.0,6.0,48,0.00,,,0.00,Wunderground v.1.15,2013-04-17 21:25:00,
2013-04-17 14:30:00,57.5,36.9,30.39,West,274,3.0,3.0,46,0.00,,,0.00,Wunderground v.1.15,2013-04-17 21:30:00,
2013-04-17 14:35:00,57.0,34.1,30.39,SSW,198,3.0,6.0,42,0.00,,,0.00,Wunderground v.1.15,2013-04-17 21:35:00,
2013-04-17 14:40:00,56.7,34.4,30.39,SE,129,3.0,3.0,43,0.00,,,0.00,Wunderground v.1.15,2013-04-17 21:40:00,
2013-04-17 14:45:00,57.0,35.9,30.39,SE,127,3.0,6.0,45,0.00,,,0.00,Wunderground v.1.15,2013-04-17 21:45:00,
2013-04-17 14:50:00,57.2,34.3,30.39,South,179,3.0,6.0,42,0.00,,,0.00,Wunderground v.1.15,2013-04-17 21:50:00,
2013-04-17 14:55:00,57.4,35.1,30.39,SW,231,2.0,6.0,43,0.00,,,0.00,Wunderground v.1.15,2013-04-17 21:55:00,
2013-04-17 15:00:00,57.7,35.9,30.39,SE,133,3.0,6.0,44,0.00,,,0.00,Wunderground v.1.15,2013-04-17 22:00:00,
2013-04-17 15:10:00,57.8,36.0,30.39,SSW,203,3.0,6.0,44,0.00,,,0.00,Wunderground v.1.15,2013-04-17 22:10:00,
2013-04-17 15:15:00,57.8,36.0,30.39,WSW,239,2.0,6.0,44,0.00,,,0.00,Wunderground v.1.15,2013-04-17 22:15:00,
2013-04-17 15:20:00,58.0,38.9,30.39,West,263,2.0,6.0,49,0.00,,,0.00,Wunderground v.1.15,2013-04-17 22:20:00,
2013-04-17 15:24:00,57.9,38.8,30.39,WSW,242,2.0,6.0,49,0.00,,,0.00,Wunderground v.1.15,2013-04-17 22:24:00,
2013-04-17 15:30:00,58.4,39.8,30.39,WNW,290,2.0,2.0,50,0.00,,,0.00,Wunderground v.1.15,2013-04-17 22:30:00,
2013-04-17 15:35:00,59.1,41.0,30.38,WSW,242,2.0,6.0,51,0.00,,,0.00,Wunderground v.1.15,2013-04-17 22:35:00,
2013-04-17 15:40:00,59.8,41.1,30.39,NE,54,2.0,2.0,50,0.00,,,0.00,Wunderground v.1.15,2013-04-17 22:40:00,
2013-04-17 15:50:00,58.7,40.6,30.39,WSW,257,3.0,3.0,51,0.00,,,0.00,Wunderground v.1.15,2013-04-17 22:50:00,
2013-04-17 15:55:00,58.1,38.0,30.39,West,270,2.0,6.0,47,0.00,,,0.00,Wunderground v.1.15,2013-04-17 22:55:00,
2013-04-17 16:00:00,57.8,38.8,30.39,NW,320,2.0,2.0,49,0.00,,,0.00,Wunderground v.1.15,2013-04-17 23:00:00,
2013-04-17 16:05:00,57.8,38.8,30.38,WSW,242,1.0,6.0,49,0.00,,,0.00,Wunderground v.1.15,2013-04-17 23:05:00,
2013-04-17 16:10:00,57.9,40.4,30.38,SE,143,1.0,1.0,52,0.00,,,0.00,Wunderground v.1.15,2013-04-17 23:10:00,
2013-04-17 16:15:00,58.3,42.2,30.38,West,281,0.0,6.0,55,0.00,,,0.00,Wunderground v.1.15,2013-04-17 23:15:00,
2013-04-17 16:20:00,58.0,38.4,30.38,West,260,1.0,6.0,48,0.00,,,0.00,Wunderground v.1.15,2013-04-17 23:20:00,
2013-04-17 16:25:00,58.1,41.5,30.38,WSW,252,2.0,6.0,54,0.00,,,0.00,Wunderground v.1.15,2013-04-17 23:25:00,
2013-04-17 16:30:00,59.3,42.2,30.38,NW,318,1.0,6.0,53,0.00,,,0.00,Wunderground v.1.15,2013-04-17 23:30:00,
2013-04-17 16:40:00,59.1,42.0,30.38,SW,224,2.0,2.0,53,0.00,,,0.00,Wunderground v.1.15,2013-04-17 23:40:00,
2013-04-17 16:45:00,59.0,42.4,30.38,SW,225,1.0,6.0,54,0.00,,,0.00,Wunderground v.1.15,2013-04-17 23:45:00,
2013-04-17 16:50:00,58.7,42.1,30.38,SW,222,1.0,6.0,54,0.00,,,0.00,Wunderground v.1.15,2013-04-17 23:50:00,
2013-04-17 16:55:00,57.9,40.9,30.38,West,259,1.0,6.0,53,0.00,,,0.00,Wunderground v.1.15,2013-04-17 23:55:00,
2013-04-17 17:00:00,57.4,41.8,30.38,WSW,250,2.0,2.0,56,0.00,,,0.00,Wunderground v.1.15,2013-04-18 00:00:00,
2013-04-17 17:05:00,57.8,42.7,30.38,North,353,1.0,6.0,57,0.00,,,0.00,Wunderground v.1.15,2013-04-18 00:05:00,
2013-04-17 17:10:00,57.4,42.3,30.38,WSW,257,1.0,6.0,57,0.00,,,0.00,Wunderground v.1.15,2013-04-18 00:10:00,
2013-04-17 17:15:00,57.1,41.5,30.38,South,191,1.0,6.0,56,0.00,,,0.00,Wunderground v.1.15,2013-04-18 00:15:00,
2013-04-17 17:20:00,56.8,42.6,30.38,West,264,1.0,1.0,59,0.00,,,0.00,Wunderground v.1.15,2013-04-18 00:20:00,
2013-04-17 17:25:00,56.5,41.9,30.38,WNW,288,1.0,6.0,58,0.00,,,0.00,Wunderground v.1.15,2013-04-18 00:25:00,
2013-04-17 17:30:00,56.1,40.6,30.38,NNE,31,1.0,1.0,56,0.00,,,0.00,Wunderground v.1.15,2013-04-18 00:30:00,
2013-04-17 17:34:00,56.0,41.9,30.38,East,100,0.0,6.0,59,0.00,,,0.00,Wunderground v.1.15,2013-04-18 00:34:00,
2013-04-17 17:40:00,55.8,41.2,30.38,WSW,247,0.0,6.0,58,0.00,,,0.00,Wunderground v.1.15,2013-04-18 00:40:00,
2013-04-17 17:45:00,55.5,41.0,30.38,SW,231,1.0,6.0,58,0.00,,,0.00,Wunderground v.1.15,2013-04-18 00:45:00,
2013-04-17 17:50:00,55.3,40.8,30.38,SSW,211,1.0,6.0,58,0.00,,,0.00,Wunderground v.1.15,2013-04-18 00:50:00,
2013-04-17 17:55:00,55.1,42.3,30.38,West,276,1.0,6.0,62,0.00,,,0.00,Wunderground v.1.15,2013-04-18 00:55:00,
2013-04-17 18:00:00,54.7,43.2,30.39,WSW,241,1.0,6.0,65,0.00,,,0.00,Wunderground v.1.15,2013-04-18 01:00:00,
2013-04-17 18:05:00,54.1,43.4,30.39,WNW,295,2.0,6.0,67,0.00,,,0.00,Wunderground v.1.15,2013-04-18 01:05:00,
2013-04-17 18:10:00,53.5,43.2,30.38,ENE,72,2.0,2.0,68,0.00,,,0.00,Wunderground v.1.15,2013-04-18 01:10:00,
2013-04-17 18:15:00,53.2,43.3,30.39,West,280,1.0,6.0,69,0.00,,,0.00,Wunderground v.1.15,2013-04-18 01:15:00,
2013-04-17 18:20:00,52.9,43.0,30.39,West,278,1.0,1.0,69,0.00,,,0.00,Wunderground v.1.15,2013-04-18 01:20:00,
2013-04-17 18:25:00,52.5,42.2,30.39,WSW,245,1.0,3.0,68,0.00,,,0.00,Wunderground v.1.15,2013-04-18 01:25:00,
2013-04-17 18:30:00,52.2,43.1,30.39,West,263,1.0,1.0,71,0.00,,,0.00,Wunderground v.1.15,2013-04-18 01:30:00,
2013-04-17 18:35:00,52.0,42.9,30.39,NW,312,1.0,6.0,71,0.00,,,0.00,Wunderground v.1.15,2013-04-18 01:35:00,
2013-04-17 18:40:00,51.6,42.1,30.39,SSW,201,1.0,6.0,70,0.00,,,0.00,Wunderground v.1.15,2013-04-18 01:40:00,
2013-04-17 18:45:00,51.2,42.1,30.39,SSW,205,2.0,6.0,71,0.00,,,0.00,Wunderground v.1.15,2013-04-18 01:45:00,
2013-04-17 18:49:00,50.8,41.7,30.39,WSW,257,2.0,2.0,71,0.00,,,0.00,Wunderground v.1.15,2013-04-18 01:49:00,
2013-04-17 18:55:00,50.6,41.9,30.39,WSW,246,2.0,6.0,72,0.00,,,0.00,Wunderground v.1.15,2013-04-18 01:55:00,
2013-04-17 19:00:00,50.3,42.0,30.39,SW,217,1.0,6.0,73,0.00,,,0.00,Wunderground v.1.15,2013-04-18 02:00:00,
2013-04-17 19:05:00,50.1,41.4,30.39,SW,236,1.0,6.0,72,0.00,,,0.00,Wunderground v.1.15,2013-04-18 02:05:00,
2013-04-17 19:10:00,49.9,41.6,30.39,South,175,2.0,6.0,73,0.00,,,0.00,Wunderground v.1.15,2013-04-18 02:10:00,
2013-04-17 19:15:00,49.6,41.3,30.39,SSW,211,3.0,6.0,73,0.00,,,0.00,Wunderground v.1.15,2013-04-18 02:15:00,
2013-04-17 19:20:00,49.4,41.8,30.39,SW,232,2.0,2.0,75,0.00,,,0.00,Wunderground v.1.15,2013-04-18 02:20:00,
2013-04-17 19:25:00,49.2,41.6,30.39,West,261,1.0,6.0,75,0.00,,,0.00,Wunderground v.1.15,2013-04-18 02:25:00,
2013-04-17 19:30:00,49.0,41.8,30.39,SW,236,1.0,6.0,76,0.00,,,0.00,Wunderground v.1.15,2013-04-18 02:30:00,
2013-04-17 19:35:00,48.8,41.6,30.39,West,273,2.0,6.0,76,0.00,,,0.00,Wunderground v.1.15,2013-04-18 02:35:00,
2013-04-17 19:44:00,48.5,41.3,30.39,SW,233,1.0,3.0,76,0.00,,,0.00,Wunderground v.1.15,2013-04-18 02:44:00,
2013-04-17 19:50:00,48.3,40.7,30.40,SW,221,2.0,2.0,75,0.00,,,0.00,Wunderground v.1.15,2013-04-18 02:50:00,
2013-04-17 19:55:00,48.2,41.0,30.40,SW,231,2.0,6.0,76,0.00,,,0.00,Wunderground v.1.15,2013-04-18 02:55:00,
2013-04-17 20:00:00,48.0,40.5,30.40,WSW,252,1.0,1.0,75,0.00,,,0.00,Wunderground v.1.15,2013-04-18 03:00:00,
2013-04-17 20:04:00,47.8,39.9,30.40,West,267,1.0,6.0,74,0.00,,,0.00,Wunderground v.1.15,2013-04-18 03:04:00,
2013-04-17 20:10:00,47.8,39.9,30.40,West,259,1.0,6.0,74,0.00,,,0.00,Wunderground v.1.15,2013-04-18 03:10:00,
2013-04-17 20:15:00,47.6,39.4,30.40,WSW,240,1.0,6.0,73,0.00,,,0.00,Wunderground v.1.15,2013-04-18 03:15:00,
2013-04-17 20:20:00,47.6,39.7,30.40,WSW,245,1.0,1.0,74,0.00,,,0.00,Wunderground v.1.15,2013-04-18 03:20:00,
2013-04-17 20:25:00,47.5,39.3,30.40,WSW,239,1.0,6.0,73,0.00,,,0.00,Wunderground v.1.15,2013-04-18 03:25:00,
2013-04-17 20:30:00,47.3,39.4,30.40,WSW,245,1.0,1.0,74,0.00,,,0.00,Wunderground v.1.15,2013-04-18 03:30:00,
2013-04-17 20:35:00,47.1,38.9,30.40,SW,236,1.0,2.0,73,0.00,,,0.00,Wunderground v.1.15,2013-04-18 03:35:00,
2013-04-17 20:40:00,47.0,38.8,30.41,WSW,245,1.0,1.0,73,0.00,,,0.00,Wunderground v.1.15,2013-04-18 03:40:00,
2013-04-17 20:45:00,46.9,39.0,30.41,WSW,248,1.0,6.0,74,0.00,,,0.00,Wunderground v.1.15,2013-04-18 03:45:00,
2013-04-17 20:50:00,47.0,38.8,30.41,WNW,291,1.0,6.0,73,0.00,,,0.00,Wunderground v.1.15,2013-04-18 03:50:00,
2013-04-17 20:55:00,47.0,39.1,30.41,WSW,253,1.0,6.0,74,0.00,,,0.00,Wunderground v.1.15,2013-04-18 03:55:00,
2013-04-17 21:00:00,46.9,39.0,30.41,WSW,248,1.0,1.0,74,0.00,,,0.00,Wunderground v.1.15,2013-04-18 04:00:00,
2013-04-17 21:05:00,46.8,39.3,30.41,SE,127,1.0,6.0,75,0.00,,,0.00,Wunderground v.1.15,2013-04-18 04:05:00,
2013-04-17 21:10:00,46.7,39.2,30.41,WSW,255,0.0,6.0,75,0.00,,,0.00,Wunderground v.1.15,2013-04-18 04:10:00,
2013-04-17 21:15:00,46.5,39.0,30.41,WSW,245,1.0,6.0,75,0.00,,,0.00,Wunderground v.1.15,2013-04-18 04:15:00,
2013-04-17 21:20:00,46.3,39.1,30.41,West,263,1.0,1.0,76,0.00,,,0.00,Wunderground v.1.15,2013-04-18 04:20:00,
2013-04-17 21:24:00,46.2,39.1,30.41,WSW,245,1.0,6.0,76,0.00,,,0.00,Wunderground v.1.15,2013-04-18 04:24:00,
2013-04-17 21:29:00,46.1,39.0,30.41,SW,229,1.0,6.0,76,0.00,,,0.00,Wunderground v.1.15,2013-04-18 04:29:00,
2013-04-17 21:35:00,46.1,39.0,30.41,SW,228,1.0,6.0,76,0.00,,,0.00,Wunderground v.1.15,2013-04-18 04:35:00,
2013-04-17 21:40:00,46.0,38.9,30.41,WSW,252,1.0,6.0,76,0.00,,,0.00,Wunderground v.1.15,2013-04-18 04:40:00,
2013-04-17 21:45:00,45.9,39.1,30.41,WSW,256,1.0,6.0,77,0.00,,,0.00,Wunderground v.1.15,2013-04-18 04:45:00,
2013-04-17 21:49:00,45.7,38.9,30.41,WSW,246,1.0,1.0,77,0.00,,,0.00,Wunderground v.1.15,2013-04-18 04:49:00,
2013-04-17 21:55:00,45.5,39.0,30.41,WSW,246,0.0,6.0,78,0.00,,,0.00,Wunderground v.1.15,2013-04-18 04:55:00,
2013-04-17 22:00:00,45.3,39.2,30.41,WSW,246,0.0,6.0,79,0.00,,,0.00,Wunderground v.1.15,2013-04-18 05:00:00,
2013-04-17 22:05:00,45.3,39.2,30.41,WSW,246,0.0,6.0,79,0.00,,,0.00,Wunderground v.1.15,2013-04-18 05:05:00,
2013-04-17 22:10:00,45.3,39.2,30.41,WSW,246,0.0,6.0,79,0.00,,,0.00,Wunderground v.1.15,2013-04-18 05:10:00,
2013-04-17 22:15:00,45.2,39.1,30.41,WSW,246,0.0,6.0,79,0.00,,,0.00,Wunderground v.1.15,2013-04-18 05:15:00,
2013-04-17 22:20:00,45.1,39.0,30.41,WSW,245,0.0,6.0,79,0.00,,,0.00,Wunderground v.1.15,2013-04-18 05:20:00,
2013-04-17 22:25:00,45.1,39.0,30.41,WSW,246,0.0,6.0,79,0.00,,,0.00,Wunderground v.1.15,2013-04-18 05:25:00,
2013-04-17 22:30:00,45.0,38.9,30.41,WSW,246,0.0,6.0,79,0.00,,,0.00,Wunderground v.1.15,2013-04-18 05:30:00,
2013-04-17 22:35:00,45.0,38.9,30.42,WSW,246,0.0,6.0,79,0.00,,,0.00,Wunderground v.1.15,2013-04-18 05:35:00,
2013-04-17 22:45:00,44.7,38.6,30.41,WSW,246,0.0,6.0,79,0.00,,,0.00,Wunderground v.1.15,2013-04-18 05:45:00,
2013-04-17 22:50:00,44.6,38.5,30.41,SW,214,0.0,6.0,79,0.00,,,0.00,Wunderground v.1.15,2013-04-18 05:50:00,
2013-04-17 22:55:00,44.6,38.5,30.41,SW,219,1.0,6.0,79,0.00,,,0.00,Wunderground v.1.15,2013-04-18 05:55:00,
2013-04-17 23:00:00,44.7,38.9,30.41,SW,221,1.0,1.0,80,0.00,,,0.00,Wunderground v.1.15,2013-04-18 06:00:00,
2013-04-17 23:05:00,44.7,38.9,30.41,SW,221,1.0,6.0,80,0.00,,,0.00,Wunderground v.1.15,2013-04-18 06:05:00,
2013-04-17 23:10:00,44.6,38.8,30.41,SW,221,0.0,6.0,80,0.00,,,0.00,Wunderground v.1.15,2013-04-18 06:10:00,
2013-04-17 23:15:00,44.5,38.7,30.41,SW,221,0.0,6.0,80,0.00,,,0.00,Wunderground v.1.15,2013-04-18 06:15:00,
2013-04-17 23:20:00,44.4,37.6,30.41,SW,221,0.0,6.0,77,0.00,,,0.00,Wunderground v.1.15,2013-04-18 06:20:00,
2013-04-17 23:25:00,44.3,37.5,30.41,SW,221,0.0,6.0,77,0.00,,,0.00,Wunderground v.1.15,2013-04-18 06:25:00,
2013-04-17 23:29:00,44.1,37.3,30.41,SW,221,0.0,6.0,77,0.00,,,0.00,Wunderground v.1.15,2013-04-18 06:29:00,
2013-04-17 23:35:00,43.9,36.5,30.41,SW,221,0.0,6.0,75,0.00,,,0.00,Wunderground v.1.15,2013-04-18 06:35:00,
2013-04-17 23:40:00,43.8,36.0,30.41,SW,221,0.0,6.0,74,0.00,,,0.00,Wunderground v.1.15,2013-04-18 06:40:00,
2013-04-17 23:45:00,43.7,35.3,30.41,SW,221,0.0,6.0,72,0.00,,,0.00,Wunderground v.1.15,2013-04-18 06:45:00,
2013-04-17 23:50:00,43.6,33.7,30.41,SW,221,0.0,6.0,68,0.00,,,0.00,Wunderground v.1.15,2013-04-18 06:50:00,